createdAt,value
2024-04-15T00:01:08.196Z,100.00
2024-04-15T00:03:35.064Z,100.00
2024-04-15T00:06:01.872Z,100.00
2024-04-15T00:08:28.576Z,100.00
2024-04-15T00:10:55.295Z,100.00
2024-04-15T00:13:22.055Z,100.00
2024-04-15T00:15:59.005Z,100.00
2024-04-15T00:18:26.331Z,98.62
2024-04-15T00:21:02.766Z,97.33
2024-04-15T00:23:29.557Z,96.42
2024-04-15T00:25:57.313Z,95.80
2024-04-15T00:28:24.500Z,95.21
2024-04-15T00:30:51.432Z,93.91
2024-04-15T00:33:19.081Z,94.12
2024-04-15T00:35:46.335Z,94.81
2024-04-15T00:38:14.358Z,95.64
2024-04-15T00:40:41.289Z,95.91
2024-04-15T00:43:09.200Z,94.76
2024-04-15T00:45:36.103Z,94.85
2024-04-15T00:48:04.451Z,94.94
2024-04-15T00:50:33.768Z,95.51
2024-04-15T00:53:03.198Z,96.75
2024-04-15T00:55:31.770Z,98.39
2024-04-15T00:57:58.620Z,98.72
2024-04-15T01:00:25.793Z,99.63
2024-04-15T01:02:52.958Z,100.00
2024-04-15T01:05:19.652Z,99.77
2024-04-15T01:07:46.342Z,100.00
2024-04-15T01:10:13.367Z,100.00
2024-04-15T01:12:41.841Z,100.00
2024-04-15T01:15:08.736Z,100.00
2024-04-15T01:17:35.564Z,100.00
2024-04-15T01:20:02.401Z,100.00
2024-04-15T01:22:35.175Z,100.00
2024-04-15T01:25:03.359Z,100.00
2024-04-15T01:27:30.198Z,100.00
2024-04-15T01:29:56.895Z,100.00
2024-04-15T01:32:23.650Z,100.00
2024-04-15T01:34:50.359Z,100.00
2024-04-15T01:37:17.034Z,100.00
2024-04-15T01:39:43.875Z,100.00
2024-04-15T01:42:10.559Z,100.00
2024-04-15T01:44:37.253Z,100.00
2024-04-15T01:47:04.086Z,100.00
2024-04-15T01:49:30.799Z,100.00
2024-04-15T01:51:57.493Z,100.00
2024-04-15T01:54:24.231Z,100.00
2024-04-15T01:56:50.877Z,100.00
2024-04-15T01:59:17.640Z,100.00
2024-04-15T02:01:44.313Z,100.00
2024-04-15T02:04:11.058Z,100.00
2024-04-15T02:06:38.028Z,100.00
2024-04-15T02:09:04.739Z,100.00
2024-04-15T02:11:31.430Z,100.00
2024-04-15T02:13:58.097Z,100.00
2024-04-15T02:16:24.785Z,100.00
2024-04-15T02:18:51.523Z,100.00
2024-04-15T02:21:18.769Z,100.00
2024-04-15T02:23:45.451Z,100.00
2024-04-15T02:26:12.202Z,100.00
2024-04-15T02:28:38.929Z,100.00
2024-04-15T02:31:05.777Z,100.00
2024-04-15T02:33:32.691Z,100.00
2024-04-15T02:35:59.345Z,100.00
2024-04-15T02:38:26.025Z,100.00
2024-04-15T02:40:53.955Z,100.00
2024-04-15T02:43:20.672Z,100.00
2024-04-15T02:45:49.128Z,100.00
2024-04-15T02:48:19.084Z,100.00
2024-04-15T02:50:45.796Z,100.00
2024-04-15T02:53:12.462Z,100.00
2024-04-15T02:55:39.160Z,100.00
2024-04-15T02:58:05.888Z,100.00
2024-04-15T03:00:33.537Z,100.00
2024-04-15T03:03:00.537Z,100.00
2024-04-15T03:05:27.293Z,100.00
2024-04-15T03:07:54.068Z,100.00
2024-04-15T03:10:20.889Z,100.00
2024-04-15T03:12:52.885Z,100.00
2024-04-15T03:15:19.869Z,100.00
2024-04-15T03:17:50.221Z,100.00
2024-04-15T03:20:17.355Z,100.00
2024-04-15T03:22:53.573Z,100.00
2024-04-15T03:25:21.811Z,100.00
2024-04-15T03:27:52.100Z,100.00
2024-04-15T03:30:19.173Z,100.00
2024-04-15T03:32:45.921Z,100.00
2024-04-15T03:35:15.519Z,100.00
2024-04-15T03:37:43.216Z,100.00
2024-04-15T03:40:11.684Z,100.00
2024-04-15T03:42:38.735Z,100.00
2024-04-15T03:45:07.135Z,100.00
2024-04-15T03:47:34.028Z,100.00
2024-04-15T03:50:00.919Z,100.00
2024-04-15T03:52:27.685Z,100.00
2024-04-15T03:54:54.398Z,100.00
2024-04-15T03:57:21.121Z,100.00
2024-04-15T03:59:47.798Z,100.00
2024-04-15T04:02:14.538Z,100.00
2024-04-15T04:04:41.956Z,100.00
2024-04-15T04:07:09.016Z,100.00
2024-04-15T04:09:39.158Z,100.00
2024-04-15T04:12:06.205Z,100.00
2024-04-15T04:14:33.002Z,100.00
2024-04-15T04:16:59.709Z,100.00
2024-04-15T04:19:27.071Z,100.00
2024-04-15T04:21:54.083Z,100.00
2024-04-15T04:24:20.831Z,100.00
2024-04-15T04:26:47.551Z,100.00
2024-04-15T04:29:14.296Z,100.00
2024-04-15T04:31:41.202Z,100.00
2024-04-15T04:34:08.034Z,100.00
2024-04-15T04:36:34.831Z,100.00
2024-04-15T04:39:01.573Z,100.00
2024-04-15T04:41:29.727Z,100.00
2024-04-15T04:43:56.440Z,100.00
2024-04-15T04:46:23.143Z,100.00
2024-04-15T04:48:50.901Z,100.00
2024-04-15T04:51:17.730Z,100.00
2024-04-15T04:53:44.598Z,100.00
2024-04-15T04:56:12.927Z,100.00
2024-04-15T04:58:39.960Z,100.00
2024-04-15T05:01:14.511Z,100.00
2024-04-15T05:03:45.497Z,100.00
2024-04-15T05:06:13.501Z,100.00
2024-04-15T05:08:40.683Z,100.00
2024-04-15T05:11:07.875Z,100.00
2024-04-15T05:13:35.056Z,100.00
2024-04-15T05:16:07.713Z,100.00
2024-04-15T05:18:35.131Z,100.00
2024-04-15T05:21:02.255Z,100.00
2024-04-15T05:23:29.586Z,100.00
2024-04-15T05:25:57.553Z,100.00
2024-04-15T05:28:24.351Z,100.00
2024-04-15T05:30:55.828Z,100.00
2024-04-15T05:33:22.747Z,100.00
2024-04-15T05:35:49.704Z,100.00
2024-04-15T05:38:17.347Z,100.00
2024-04-15T05:40:44.252Z,100.00
2024-04-15T05:43:11.841Z,100.00
2024-04-15T05:45:38.905Z,100.00
2024-04-15T05:48:06.546Z,100.00
2024-04-15T05:50:33.653Z,100.00
2024-04-15T05:53:00.344Z,100.00
2024-04-15T05:55:27.171Z,100.00
2024-04-15T05:57:53.899Z,100.00
2024-04-15T06:00:20.932Z,100.00
2024-04-15T06:02:47.933Z,100.00
2024-04-15T06:05:14.665Z,100.00
2024-04-15T06:07:41.578Z,100.00
2024-04-15T06:10:08.356Z,100.00
2024-04-15T06:12:35.055Z,100.00
2024-04-15T06:15:01.898Z,100.00
2024-04-15T06:17:30.235Z,100.00
2024-04-15T06:19:56.936Z,100.00
2024-04-15T06:22:24.444Z,100.00
2024-04-15T06:24:51.252Z,100.00
2024-04-15T06:27:19.539Z,100.00
2024-04-15T06:29:46.254Z,100.00
2024-04-15T06:32:13.584Z,100.00
2024-04-15T06:34:40.443Z,100.00
2024-04-15T06:37:07.155Z,100.00
2024-04-15T06:39:35.332Z,100.00
2024-04-15T06:42:02.210Z,100.00
2024-04-15T06:44:28.899Z,100.00
2024-04-15T06:46:56.323Z,100.00
2024-04-15T06:49:23.112Z,100.00
2024-04-15T06:51:50.075Z,100.00
2024-04-15T06:54:16.965Z,100.00
2024-04-15T06:56:43.671Z,100.00
2024-04-15T06:59:10.362Z,100.00
2024-04-15T07:01:39.292Z,100.00
2024-04-15T07:04:07.489Z,100.00
2024-04-15T07:06:34.394Z,100.00
2024-04-15T07:09:01.242Z,100.00
2024-04-15T07:11:28.032Z,100.00
2024-04-15T07:13:54.763Z,100.00
2024-04-15T07:16:21.683Z,100.00
2024-04-15T07:18:48.521Z,100.00
2024-04-15T07:21:15.424Z,100.00
2024-04-15T07:23:46.058Z,100.00
2024-04-15T07:26:13.033Z,100.00
2024-04-15T07:28:40.589Z,100.00
2024-04-15T07:31:08.096Z,100.00
2024-04-15T07:33:35.065Z,100.00
2024-04-15T07:36:02.413Z,100.00
2024-04-15T07:38:29.428Z,100.00
2024-04-15T07:40:59.879Z,100.00
2024-04-15T07:43:26.931Z,100.00
2024-04-15T07:45:53.753Z,100.00
2024-04-15T07:48:20.508Z,100.00
2024-04-15T07:50:47.206Z,100.00
2024-04-15T07:53:13.904Z,100.00
2024-04-15T07:55:44.818Z,100.00
2024-04-15T07:58:11.618Z,100.00
2024-04-15T08:00:38.571Z,100.00
2024-04-15T08:03:05.544Z,100.00
2024-04-15T08:05:32.806Z,100.00
2024-04-15T08:07:59.622Z,100.00
2024-04-15T08:10:26.449Z,100.00
2024-04-15T08:12:53.613Z,100.00
2024-04-15T08:15:21.111Z,100.00
2024-04-15T08:17:47.857Z,100.00
2024-04-15T08:20:14.613Z,100.00
2024-04-15T08:22:42.126Z,100.00
2024-04-15T08:25:10.259Z,100.00
2024-04-15T08:27:37.728Z,100.00
2024-04-15T08:30:05.424Z,100.00
2024-04-15T08:32:32.816Z,100.00
2024-04-15T08:35:00.156Z,100.00
2024-04-15T08:37:26.933Z,100.00
2024-04-15T08:39:53.871Z,100.00
2024-04-15T08:42:37.903Z,100.00
2024-04-15T08:45:08.265Z,100.00
2024-04-15T08:47:36.300Z,100.00
2024-04-15T08:50:06.803Z,100.00
2024-04-15T08:52:33.417Z,100.00
2024-04-15T08:55:00.336Z,100.00
2024-04-15T08:57:28.807Z,100.00
2024-04-15T08:59:57.280Z,100.00
2024-04-15T09:02:24.157Z,100.00
2024-04-15T09:04:53.452Z,100.00
2024-04-15T09:07:21.819Z,100.00
2024-04-15T09:09:49.081Z,100.00
2024-04-15T09:12:15.811Z,100.00
2024-04-15T09:14:42.501Z,100.00
2024-04-15T09:17:12.180Z,100.00
2024-04-15T09:19:42.622Z,100.00
2024-04-15T09:22:09.369Z,100.00
2024-04-15T09:24:36.406Z,100.00
2024-04-15T09:27:03.077Z,100.00
2024-04-15T09:29:29.764Z,100.00
2024-04-15T09:31:57.078Z,100.00
2024-04-15T09:34:23.838Z,100.00
2024-04-15T09:36:58.130Z,100.00
2024-04-15T09:39:25.301Z,100.00
2024-04-15T09:41:54.384Z,100.00
2024-04-15T09:44:21.442Z,100.00
2024-04-15T09:46:48.539Z,100.00
2024-04-15T09:49:15.708Z,100.00
2024-04-15T09:51:43.717Z,100.00
2024-04-15T09:54:11.966Z,100.00
2024-04-15T09:56:49.031Z,100.00
2024-04-15T09:59:16.874Z,100.00
2024-04-15T10:01:44.691Z,100.00
2024-04-15T10:04:22.208Z,100.00
2024-04-15T10:06:53.301Z,100.00
2024-04-15T10:09:20.493Z,96.76
2024-04-15T10:11:48.849Z,100.00
2024-04-15T10:14:20.262Z,94.55
2024-04-15T10:16:49.007Z,93.95
2024-04-15T10:19:27.958Z,93.47
2024-04-15T10:21:56.179Z,90.67
2024-04-15T10:24:23.726Z,89.69
2024-04-15T10:26:50.470Z,91.15
2024-04-15T10:29:22.942Z,89.11
2024-04-15T10:31:53.863Z,89.41
2024-04-15T10:34:25.257Z,88.63
2024-04-15T10:36:53.646Z,87.69
2024-04-15T10:39:21.814Z,87.40
2024-04-15T10:41:49.444Z,89.71
2024-04-15T10:44:16.457Z,86.83
2024-04-15T10:46:49.268Z,89.18
2024-04-15T10:49:16.989Z,83.00
2024-04-15T10:51:44.748Z,84.19
2024-04-15T10:54:11.492Z,82.53
2024-04-15T10:56:38.233Z,83.01
2024-04-15T10:59:05.324Z,78.60
2024-04-15T11:01:32.077Z,80.99
2024-04-15T11:03:59.010Z,80.99
2024-04-15T11:06:29.113Z,79.65
2024-04-15T11:08:58.251Z,79.98
2024-04-15T11:11:26.722Z,78.55
2024-04-15T11:13:53.860Z,79.44
2024-04-15T11:16:20.875Z,75.42
2024-04-15T11:18:47.717Z,75.36
2024-04-15T11:21:14.679Z,75.28
2024-04-15T11:23:41.417Z,76.78
2024-04-15T11:26:08.866Z,73.37
2024-04-15T11:28:36.590Z,76.39
2024-04-15T11:31:03.871Z,74.99
2024-04-15T11:33:30.740Z,75.65
2024-04-15T11:35:57.572Z,77.10
2024-04-15T11:38:25.613Z,79.65
2024-04-15T11:40:55.463Z,78.11
2024-04-15T11:43:22.685Z,75.80
2024-04-15T11:45:56.421Z,74.87
2024-04-15T11:48:23.924Z,72.42
2024-04-15T11:50:51.025Z,69.37
2024-04-15T11:53:27.777Z,63.16
2024-04-15T11:55:55.103Z,68.41
2024-04-15T11:58:22.542Z,63.88
2024-04-15T12:00:49.568Z,60.21
2024-04-15T12:03:16.478Z,57.29
2024-04-15T12:05:43.533Z,55.18
2024-04-15T12:08:10.347Z,55.41
2024-04-15T12:10:37.187Z,53.90
2024-04-15T12:13:05.144Z,54.50
2024-04-15T12:15:31.891Z,54.54
2024-04-15T12:17:58.732Z,57.91
2024-04-15T12:20:25.700Z,56.32
2024-04-15T12:22:52.417Z,54.99
2024-04-15T12:25:19.143Z,56.52
2024-04-15T12:27:46.663Z,53.66
2024-04-15T12:30:13.684Z,56.32
2024-04-15T12:32:43.590Z,53.78
2024-04-15T12:35:11.969Z,54.36
2024-04-15T12:37:38.853Z,54.73
2024-04-15T12:40:07.610Z,53.38
2024-04-15T12:42:35.263Z,53.83
2024-04-15T12:45:02.477Z,53.15
2024-04-15T12:47:29.251Z,56.41
2024-04-15T12:49:56.017Z,53.51
2024-04-15T12:52:22.846Z,56.04
2024-04-15T12:54:52.441Z,50.86
2024-04-15T12:57:20.721Z,50.24
2024-04-15T12:59:47.670Z,50.39
2024-04-15T13:02:14.450Z,50.67
2024-04-15T13:04:41.257Z,49.00
2024-04-15T13:07:08.235Z,51.45
2024-04-15T13:09:35.114Z,49.90
2024-04-15T13:12:01.812Z,49.42
2024-04-15T13:14:28.589Z,49.48
2024-04-15T13:16:55.286Z,49.97
2024-04-15T13:19:22.169Z,50.14
2024-04-15T13:21:49.011Z,50.03
2024-04-15T13:24:16.747Z,51.41
2024-04-15T13:26:43.471Z,51.00
2024-04-15T13:29:10.257Z,52.73
2024-04-15T13:31:37.043Z,51.17
2024-04-15T13:34:05.297Z,50.31
2024-04-15T13:36:33.027Z,53.68
2024-04-15T13:38:59.742Z,51.29
2024-04-15T13:41:26.498Z,51.09
2024-04-15T13:43:53.259Z,51.47
2024-04-15T13:46:20.171Z,51.49
2024-04-15T13:48:46.979Z,50.83
2024-04-15T13:51:13.690Z,50.25
2024-04-15T13:53:40.390Z,50.97
2024-04-15T13:56:07.590Z,50.62
2024-04-15T13:58:34.467Z,48.30
2024-04-15T14:01:01.277Z,48.30
2024-04-15T14:03:28.378Z,51.22
2024-04-15T14:05:55.227Z,48.58
2024-04-15T14:08:22.920Z,45.90
2024-04-15T14:10:50.084Z,46.44
2024-04-15T14:13:17.466Z,45.45
2024-04-15T14:15:44.508Z,47.05
2024-04-15T14:18:11.530Z,46.61
2024-04-15T14:20:38.231Z,46.27
2024-04-15T14:23:05.659Z,45.88
2024-04-15T14:25:32.457Z,46.29
2024-04-15T14:27:59.339Z,48.20
2024-04-15T14:30:26.075Z,46.52
2024-04-15T14:32:53.171Z,46.41
2024-04-15T14:35:19.956Z,46.94
2024-04-15T14:37:46.787Z,45.65
2024-04-15T14:40:21.946Z,47.25
2024-04-15T14:42:51.096Z,45.81
2024-04-15T14:45:18.219Z,46.79
2024-04-15T14:47:46.731Z,45.86
2024-04-15T14:50:13.826Z,46.46
2024-04-15T14:52:40.531Z,45.60
2024-04-15T14:55:07.463Z,46.07
2024-04-15T14:57:34.300Z,47.11
2024-04-15T15:00:01.186Z,45.82
2024-04-15T15:02:27.974Z,46.61
2024-04-15T15:04:54.758Z,46.54
2024-04-15T15:07:21.609Z,46.93
2024-04-15T15:09:48.432Z,46.76
2024-04-15T15:12:15.361Z,46.32
2024-04-15T15:14:42.150Z,46.41
2024-04-15T15:17:09.408Z,46.91
2024-04-15T15:19:36.666Z,47.43
2024-04-15T15:22:03.718Z,47.43
2024-04-15T15:24:30.454Z,47.51
2024-04-15T15:26:57.227Z,47.60
2024-04-15T15:29:24.176Z,48.79
2024-04-15T15:31:51.875Z,48.86
2024-04-15T15:34:18.817Z,48.46
2024-04-15T15:36:45.711Z,48.45
2024-04-15T15:39:13.395Z,46.40
2024-04-15T15:41:40.356Z,45.60
2024-04-15T15:44:07.050Z,45.65
2024-04-15T15:46:34.038Z,46.62
2024-04-15T15:49:01.145Z,45.72
2024-04-15T15:51:28.305Z,43.73
2024-04-15T15:53:55.022Z,44.43
2024-04-15T15:56:21.755Z,44.91
2024-04-15T15:58:48.494Z,44.99
2024-04-15T16:01:15.278Z,45.84
2024-04-15T16:03:42.305Z,45.81
2024-04-15T16:06:09.527Z,45.66
2024-04-15T16:08:36.689Z,46.44
2024-04-15T16:11:03.614Z,45.89
2024-04-15T16:13:30.447Z,46.42
2024-04-15T16:15:57.200Z,46.42
2024-04-15T16:18:23.893Z,46.91
2024-04-15T16:20:51.036Z,47.71
2024-04-15T16:23:17.827Z,46.92
2024-04-15T16:25:44.674Z,47.12
2024-04-15T16:28:11.789Z,47.23
2024-04-15T16:30:38.716Z,47.42
2024-04-15T16:33:05.745Z,47.54
2024-04-15T16:35:32.582Z,46.74
2024-04-15T16:37:59.296Z,47.35
2024-04-15T16:40:26.135Z,45.97
2024-04-15T16:42:55.378Z,46.13
2024-04-15T16:45:22.255Z,45.88
2024-04-15T16:50:59.104Z,44.44
2024-04-15T16:54:04.175Z,44.17
2024-04-15T16:56:40.293Z,44.76
2024-04-15T16:59:07.366Z,45.16
2024-04-15T17:01:34.293Z,45.81
2024-04-15T17:04:01.384Z,47.42
2024-04-15T17:06:28.598Z,48.31
2024-04-15T17:08:56.901Z,49.08
2024-04-15T17:11:23.814Z,48.34
2024-04-15T17:13:50.602Z,48.64
2024-04-15T17:16:17.422Z,48.61
2024-04-15T17:18:44.390Z,49.60
2024-04-15T17:21:11.089Z,50.04
2024-04-15T17:23:37.782Z,49.58
2024-04-15T17:26:04.752Z,48.24
2024-04-15T17:28:31.662Z,47.78
2024-04-15T17:30:58.382Z,48.65
2024-04-15T17:33:25.147Z,49.15
2024-04-15T17:35:52.239Z,48.46
2024-04-15T17:38:18.975Z,48.43
2024-04-15T17:40:45.650Z,47.73
2024-04-15T17:43:12.359Z,48.69
2024-04-15T17:45:39.190Z,47.99
2024-04-15T17:48:06.327Z,48.36
2024-04-15T17:50:33.035Z,48.80
2024-04-15T17:52:59.755Z,49.93
2024-04-15T17:55:26.765Z,49.93
2024-04-15T17:57:58.332Z,49.01
2024-04-15T18:00:26.698Z,49.47
2024-04-15T18:02:56.672Z,50.35
2024-04-15T18:05:24.155Z,49.74
2024-04-15T18:07:50.836Z,50.29
2024-04-15T18:10:18.574Z,50.52
2024-04-15T18:12:48.174Z,50.44
2024-04-15T18:15:15.339Z,50.29
2024-04-15T18:17:42.586Z,51.86
2024-04-15T18:20:09.959Z,52.46
2024-04-15T18:22:36.956Z,59.86
2024-04-15T18:25:04.167Z,65.66
2024-04-15T18:27:30.962Z,69.34
2024-04-15T18:29:58.033Z,80.01
2024-04-15T18:32:24.904Z,89.12
2024-04-15T18:34:51.637Z,95.28
2024-04-15T18:37:19.685Z,100.00
2024-04-15T18:39:46.595Z,100.00
2024-04-15T18:42:13.386Z,100.00
2024-04-15T18:44:40.299Z,100.00
2024-04-15T18:47:07.029Z,100.00
2024-04-15T18:49:33.763Z,100.00
2024-04-15T18:52:01.115Z,100.00
2024-04-15T18:54:27.862Z,100.00
2024-04-15T18:56:54.813Z,100.00
2024-04-15T18:59:21.575Z,100.00
2024-04-15T19:01:48.264Z,96.94
2024-04-15T19:04:15.104Z,96.52
2024-04-15T19:06:41.963Z,97.34
2024-04-15T19:09:08.796Z,95.29
2024-04-15T19:11:35.531Z,92.85
2024-04-15T19:14:02.623Z,92.83
2024-04-15T19:16:29.718Z,89.55
2024-04-15T19:18:57.866Z,88.50
2024-04-15T19:21:24.787Z,85.92
2024-04-15T19:23:51.885Z,85.84
2024-04-15T19:26:18.550Z,84.67
2024-04-15T19:28:45.240Z,84.36
2024-04-15T19:31:22.831Z,83.69
2024-04-15T19:33:56.367Z,82.28
2024-04-15T19:36:23.139Z,82.27
2024-04-15T19:38:49.870Z,81.54
2024-04-15T19:41:16.546Z,81.33
2024-04-15T19:43:43.254Z,80.44
2024-04-15T19:46:10.002Z,79.44
2024-04-15T19:48:37.755Z,78.56
2024-04-15T19:51:04.587Z,78.91
2024-04-15T19:53:31.320Z,79.46
2024-04-15T19:55:57.988Z,80.52
2024-04-15T19:58:24.740Z,80.47
2024-04-15T20:00:51.648Z,79.53
2024-04-15T20:03:18.343Z,78.23
2024-04-15T20:05:45.236Z,77.69
2024-04-15T20:08:20.603Z,76.91
2024-04-15T20:10:48.410Z,76.66
2024-04-15T20:13:15.366Z,77.48
2024-04-15T20:15:42.141Z,76.65
2024-04-15T20:18:22.221Z,76.10
2024-04-15T20:20:50.045Z,76.27
2024-04-15T20:23:18.253Z,75.90
2024-04-15T20:25:45.785Z,75.25
2024-04-15T20:28:12.664Z,74.17
2024-04-15T20:30:39.391Z,73.57
2024-04-15T20:33:07.426Z,73.29
2024-04-15T20:35:34.195Z,73.17
2024-04-15T20:38:00.876Z,73.09
2024-04-15T20:40:35.585Z,73.36
2024-04-15T20:43:07.607Z,73.65
2024-04-15T20:45:35.120Z,73.24
2024-04-15T20:48:02.063Z,72.67
2024-04-15T20:50:28.922Z,72.72
2024-04-15T20:52:55.702Z,72.74
2024-04-15T20:55:22.432Z,72.55
2024-04-15T20:57:49.242Z,72.63
2024-04-15T21:00:15.922Z,72.36
2024-04-15T21:02:42.743Z,72.39
2024-04-15T21:05:09.457Z,71.96
2024-04-15T21:07:36.677Z,72.12
2024-04-15T21:10:03.563Z,72.10
2024-04-15T21:12:30.344Z,71.49
2024-04-15T21:14:57.020Z,71.28
2024-04-15T21:17:23.786Z,71.21
2024-04-15T21:19:50.489Z,71.71
2024-04-15T21:22:17.223Z,71.56
2024-04-15T21:24:43.952Z,71.71
2024-04-15T21:27:10.711Z,71.40
2024-04-15T21:29:37.449Z,70.68
2024-04-15T21:32:04.448Z,70.58
2024-04-15T21:34:31.214Z,71.18
2024-04-15T21:36:58.047Z,71.41
2024-04-15T21:39:24.822Z,71.89
2024-04-15T21:41:51.587Z,72.51
2024-04-15T21:44:18.349Z,72.54
2024-04-15T21:46:45.227Z,72.45
2024-04-15T21:49:12.108Z,73.02
2024-04-15T21:51:38.873Z,73.10
2024-04-15T21:54:05.685Z,73.37
2024-04-15T21:56:32.437Z,73.36
2024-04-15T21:58:59.287Z,73.22
2024-04-15T22:01:26.111Z,72.99
2024-04-15T22:03:53.741Z,73.14
2024-04-15T22:06:21.410Z,73.02
2024-04-15T22:08:48.183Z,73.34
2024-04-15T22:11:14.964Z,73.47
2024-04-15T22:13:41.806Z,73.10
2024-04-15T22:16:10.679Z,73.09
2024-04-15T22:18:37.582Z,73.07
2024-04-15T22:21:04.606Z,73.37
2024-04-15T22:23:31.364Z,73.23
2024-04-15T22:25:58.882Z,73.21
2024-04-15T22:28:25.809Z,73.14
2024-04-15T22:30:52.638Z,73.56
2024-04-15T22:33:19.615Z,73.65
2024-04-15T22:35:46.459Z,73.94
2024-04-15T22:38:13.295Z,73.65
2024-04-15T22:40:40.247Z,74.16
2024-04-15T22:43:07.653Z,74.08
2024-04-15T22:45:34.686Z,73.85
2024-04-15T22:48:01.830Z,73.92
2024-04-15T22:50:28.586Z,74.18
2024-04-15T22:52:55.758Z,74.16
2024-04-15T22:55:22.566Z,74.09
2024-04-15T22:57:50.154Z,73.98
2024-04-15T23:00:19.524Z,74.01
2024-04-15T23:02:47.939Z,74.06
2024-04-15T23:05:14.664Z,73.92
2024-04-15T23:07:41.354Z,73.90
2024-04-15T23:10:08.133Z,74.07
2024-04-15T23:12:34.814Z,74.07
2024-04-15T23:15:01.602Z,73.88
2024-04-15T23:17:28.453Z,73.94
2024-04-15T23:19:56.928Z,73.86
2024-04-15T23:22:23.637Z,73.90
2024-04-15T23:24:51.629Z,73.90
2024-04-15T23:27:18.287Z,73.53
2024-04-15T23:29:44.992Z,73.55
2024-04-15T23:32:11.687Z,73.47
2024-04-15T23:34:38.512Z,73.98
2024-04-15T23:37:05.318Z,73.93
2024-04-15T23:39:32.019Z,74.10
2024-04-15T23:41:58.651Z,74.08
2024-04-15T23:44:25.316Z,73.90
2024-04-15T23:47:10.377Z,74.30
2024-04-15T23:49:56.107Z,74.44
2024-04-15T23:52:41.763Z,74.18
2024-04-15T23:55:27.291Z,74.29
2024-04-15T23:57:57.928Z,73.99
